createdAt,value
2023-01-23T00:03:56.371Z,1.51
2023-01-23T00:08:57.759Z,1.48
2023-01-23T00:13:59.012Z,1.49
2023-01-23T00:19:00.273Z,1.48
2023-01-23T00:24:01.846Z,1.46
2023-01-23T00:29:03.238Z,1.44
2023-01-23T00:34:04.605Z,1.42
2023-01-23T00:39:06.663Z,1.43
2023-01-23T00:44:07.945Z,1.45
2023-01-23T00:49:09.208Z,1.43
2023-01-23T00:54:10.457Z,1.34
2023-01-23T00:59:11.681Z,1.31
2023-01-23T01:04:13.020Z,1.30
2023-01-23T01:09:15.400Z,1.29
2023-01-23T01:14:16.653Z,1.30
2023-01-23T01:19:18.397Z,1.32
2023-01-23T01:24:19.569Z,1.33
2023-01-23T01:29:20.820Z,1.35
2023-01-23T01:34:23.618Z,1.32
2023-01-23T01:39:24.971Z,1.36
2023-01-23T01:44:26.304Z,1.36
2023-01-23T01:49:29.703Z,1.32
2023-01-23T01:54:30.890Z,1.27
2023-01-23T01:59:32.213Z,1.25
2023-01-23T02:04:33.516Z,1.27
2023-01-23T02:09:34.755Z,1.25
2023-01-23T02:14:36.152Z,1.23
2023-01-23T02:19:37.397Z,1.22
2023-01-23T02:24:39.169Z,1.22
2023-01-23T02:29:40.402Z,1.24
2023-01-23T02:34:41.628Z,1.25
2023-01-23T02:39:42.893Z,1.25
2023-01-23T02:44:44.392Z,1.22
2023-01-23T02:49:47.691Z,1.20
2023-01-23T02:54:49.151Z,1.21
2023-01-23T03:00:09.190Z,1.20
2023-01-23T03:05:10.481Z,1.17
2023-01-23T03:10:11.758Z,1.11
2023-01-23T03:15:13.003Z,1.08
2023-01-23T03:20:14.206Z,1.01
2023-01-23T03:25:15.468Z,0.94
2023-01-23T03:30:17.099Z,0.90
2023-01-23T03:35:19.756Z,0.81
2023-01-23T03:40:39.669Z,0.77
2023-01-23T03:45:40.972Z,0.77
2023-01-23T03:50:42.284Z,0.72
2023-01-23T03:55:50.911Z,0.66
2023-01-23T04:00:52.134Z,0.60
2023-01-23T04:05:53.340Z,0.59
2023-01-23T04:10:54.557Z,0.50
2023-01-23T04:15:55.801Z,0.43
2023-01-23T04:20:57.067Z,0.31
2023-01-23T04:25:58.301Z,0.24
2023-01-23T04:36:14.738Z,0.13
2023-01-23T04:41:15.956Z,-0.01
2023-01-23T04:46:17.289Z,-0.14
2023-01-23T04:51:18.606Z,-0.09
2023-01-23T04:56:19.809Z,-0.04
2023-01-23T05:01:23.333Z,-0.04
2023-01-23T05:06:24.644Z,-0.01
2023-01-23T05:11:25.958Z,0.00
2023-01-23T05:16:29.461Z,-0.01
2023-01-23T05:21:30.686Z,-0.04
2023-01-23T05:26:31.897Z,0.05
2023-01-23T05:31:33.427Z,0.03
2023-01-23T05:36:34.674Z,0.05
2023-01-23T05:41:35.907Z,0.05
2023-01-23T05:46:37.220Z,0.03
2023-01-23T05:51:39.810Z,0.04
2023-01-23T05:56:41.068Z,-0.02
2023-01-23T06:01:42.298Z,-0.04
2023-01-23T06:06:43.528Z,0.03
2023-01-23T06:11:44.839Z,0.05
2023-01-23T06:16:46.097Z,0.00
2023-01-23T06:21:47.347Z,-0.12
2023-01-23T06:26:48.564Z,-0.11
2023-01-23T06:31:49.845Z,0.07
2023-01-23T06:36:53.631Z,0.09
2023-01-23T06:41:57.636Z,0.09
2023-01-23T06:47:01.271Z,0.21
2023-01-23T06:52:02.533Z,0.32
2023-01-23T06:57:03.765Z,0.60
2023-01-23T07:02:04.992Z,0.79
2023-01-23T07:07:06.220Z,0.96
2023-01-23T07:12:07.577Z,0.97
2023-01-23T07:17:08.791Z,1.02
2023-01-23T07:22:11.190Z,1.03
2023-01-23T07:27:12.433Z,1.06
2023-01-23T07:32:13.706Z,1.15
2023-01-23T07:37:17.560Z,1.19
2023-01-23T07:42:18.785Z,1.25
2023-01-23T07:47:20.002Z,1.28
2023-01-23T07:52:21.248Z,1.32
2023-01-23T07:57:22.506Z,1.29
2023-01-23T08:02:23.735Z,1.32
2023-01-23T08:07:25.088Z,1.33
2023-01-23T08:12:28.690Z,1.39
2023-01-23T08:17:29.895Z,1.44
2023-01-23T08:22:31.088Z,1.47
2023-01-23T08:27:32.266Z,1.47
2023-01-23T08:32:33.460Z,1.51
2023-01-23T08:37:34.668Z,1.59
2023-01-23T08:42:35.881Z,1.65
2023-01-23T08:47:38.100Z,1.70
2023-01-23T08:52:39.316Z,1.76
2023-01-23T08:57:40.479Z,1.82
2023-01-23T09:02:41.755Z,1.82
2023-01-23T09:07:42.985Z,1.84
2023-01-23T09:12:44.270Z,1.91
2023-01-23T09:17:45.567Z,1.95
2023-01-23T09:22:46.807Z,2.02
2023-01-23T09:27:48.069Z,2.09
2023-01-23T09:32:49.243Z,2.13
2023-01-23T09:38:04.169Z,2.15
2023-01-23T09:43:06.920Z,2.23
2023-01-23T09:48:08.142Z,2.26
2023-01-23T09:53:09.395Z,2.37
2023-01-23T09:58:10.570Z,2.41
2023-01-23T10:03:11.775Z,2.50
2023-01-23T10:08:13.352Z,2.50
2023-01-23T10:13:16.523Z,2.55
2023-01-23T10:18:17.958Z,2.60
2023-01-23T10:23:19.288Z,2.59
2023-01-23T10:28:20.543Z,2.59
2023-01-23T10:33:21.750Z,2.66
2023-01-23T10:38:28.806Z,2.70
2023-01-23T10:43:30.306Z,2.71
2023-01-23T10:48:31.603Z,2.79
2023-01-23T10:53:32.888Z,2.87
2023-01-23T10:58:34.289Z,2.97
2023-01-23T11:03:35.528Z,2.98
2023-01-23T11:08:36.867Z,3.10
2023-01-23T11:13:38.085Z,3.09
2023-01-23T11:18:39.343Z,3.13
2023-01-23T11:23:40.589Z,3.24
2023-01-23T11:28:41.845Z,3.29
2023-01-23T11:33:44.342Z,3.33
2023-01-23T11:38:52.588Z,3.40
2023-01-23T11:43:54.420Z,3.49
2023-01-23T11:48:59.231Z,3.50
2023-01-23T11:54:00.442Z,3.52
2023-01-23T11:59:01.622Z,3.74
2023-01-23T12:04:03.010Z,3.83
2023-01-23T12:09:04.266Z,4.08
2023-01-23T12:14:05.664Z,3.98
2023-01-23T12:19:06.936Z,3.88
2023-01-23T12:24:08.187Z,3.95
2023-01-23T12:29:09.393Z,4.05
2023-01-23T12:34:10.597Z,4.06
2023-01-23T12:39:11.914Z,4.17
2023-01-23T12:44:13.148Z,4.05
2023-01-23T12:49:14.388Z,4.01
2023-01-23T12:54:16.238Z,4.03
2023-01-23T12:59:17.723Z,3.96
2023-01-23T13:04:18.996Z,4.06
2023-01-23T13:09:20.182Z,4.10
2023-01-23T13:14:21.877Z,4.02
2023-01-23T13:19:41.746Z,3.90
2023-01-23T13:25:01.620Z,3.76
2023-01-23T13:30:03.449Z,3.81
2023-01-23T13:35:04.802Z,3.85
2023-01-23T13:40:06.897Z,3.75
2023-01-23T13:45:08.297Z,3.66
2023-01-23T14:22:19.768Z,3.45
2023-01-23T14:27:28.175Z,3.31
2023-01-23T14:32:30.126Z,3.26
2023-01-23T14:37:31.380Z,3.18
2023-01-23T14:42:33.771Z,3.12
2023-01-23T14:47:35.346Z,3.06
2023-01-23T14:52:37.191Z,3.06
2023-01-23T14:57:38.388Z,3.00
2023-01-23T15:02:40.319Z,3.05
2023-01-23T15:07:41.578Z,3.03
2023-01-23T15:12:42.789Z,2.95
2023-01-23T15:17:44.005Z,2.88
2023-01-23T15:22:45.237Z,2.90
2023-01-23T15:27:46.685Z,2.82
2023-01-23T15:32:47.895Z,2.82
2023-01-23T15:37:49.163Z,2.83
2023-01-23T15:42:50.342Z,2.79
2023-01-23T15:47:51.537Z,2.74
2023-01-23T15:52:52.777Z,2.67
2023-01-23T15:57:53.998Z,2.67
2023-01-23T16:02:57.273Z,2.70
2023-01-23T16:08:03.201Z,2.62
2023-01-23T16:13:06.988Z,2.58
2023-01-23T16:18:08.266Z,2.58
2023-01-23T16:23:15.167Z,2.57
2023-01-23T16:28:16.700Z,2.56
2023-01-23T16:33:17.916Z,2.55
2023-01-23T16:38:19.329Z,2.56
2023-01-23T16:43:20.620Z,2.58
2023-01-23T16:48:27.147Z,2.57
2023-01-23T16:53:29.384Z,2.63
2023-01-23T16:58:30.889Z,2.62
2023-01-23T17:03:32.076Z,2.60
2023-01-23T17:08:33.291Z,2.61
2023-01-23T17:13:35.766Z,2.66
2023-01-23T17:18:37.054Z,2.64
2023-01-23T17:23:38.305Z,2.61
2023-01-23T17:28:39.980Z,2.63
2023-01-23T17:33:41.177Z,2.63
2023-01-23T17:38:42.369Z,2.62
2023-01-23T17:43:44.692Z,2.60
2023-01-23T17:48:48.790Z,2.65
2023-01-23T17:53:51.097Z,2.64
2023-01-23T17:58:52.334Z,2.61
2023-01-23T18:03:53.583Z,2.61
2023-01-23T18:08:54.977Z,2.63
2023-01-23T18:13:56.161Z,2.63
2023-01-23T18:18:57.396Z,2.65
2023-01-23T18:23:58.674Z,2.69
2023-01-23T18:28:59.874Z,2.69
2023-01-23T18:34:01.302Z,2.65
2023-01-23T18:39:02.639Z,2.62
2023-01-23T18:44:03.814Z,2.61
2023-01-23T18:49:05.011Z,2.59
2023-01-23T18:54:07.154Z,2.57
2023-01-23T18:59:12.396Z,2.56
2023-01-23T19:04:14.362Z,2.53
2023-01-23T19:09:15.587Z,2.52
2023-01-23T19:14:16.783Z,2.51
2023-01-23T19:19:19.735Z,2.50
2023-01-23T19:24:21.335Z,2.49
2023-01-23T19:29:23.320Z,2.48
2023-01-23T19:34:24.716Z,2.47
2023-01-23T19:39:25.937Z,2.45
2023-01-23T19:44:28.843Z,2.46
2023-01-23T19:49:30.148Z,2.46
2023-01-23T19:54:31.598Z,2.46
2023-01-23T19:59:33.027Z,2.46
2023-01-23T20:04:34.401Z,2.46
2023-01-23T20:09:35.607Z,2.52
2023-01-23T20:14:36.837Z,2.49
2023-01-23T20:19:38.315Z,2.50
2023-01-23T20:24:39.549Z,2.51
2023-01-23T20:29:40.772Z,2.49
2023-01-23T20:34:42.036Z,2.50
2023-01-23T20:39:43.247Z,2.48
2023-01-23T20:44:44.434Z,2.47
2023-01-23T20:49:45.631Z,2.50
2023-01-23T20:54:46.873Z,2.49
2023-01-23T20:59:48.096Z,2.48
2023-01-23T21:04:49.369Z,2.49
2023-01-23T21:09:50.591Z,2.47
2023-01-23T21:14:51.783Z,2.48
2023-01-23T21:19:53.000Z,2.47
2023-01-23T21:24:54.280Z,2.48
2023-01-23T21:29:55.575Z,2.50
2023-01-23T21:34:56.912Z,2.47
2023-01-23T21:39:58.184Z,2.49
2023-01-23T21:44:59.428Z,2.50
2023-01-23T21:50:00.644Z,2.50
2023-01-23T21:55:01.809Z,2.50
2023-01-23T22:00:21.888Z,2.52
2023-01-23T22:05:23.375Z,2.54
2023-01-23T22:10:24.900Z,2.53
2023-01-23T22:15:28.174Z,2.56
2023-01-23T22:20:29.358Z,2.54
2023-01-23T22:25:30.615Z,2.53
2023-01-23T22:30:31.828Z,2.55
2023-01-23T22:35:33.025Z,2.54
2023-01-23T22:40:34.499Z,2.56
2023-01-23T22:45:35.743Z,2.56
2023-01-23T22:50:36.952Z,2.56
2023-01-23T22:55:38.199Z,2.56
2023-01-23T23:00:39.405Z,2.58
2023-01-23T23:05:40.615Z,2.60
2023-01-23T23:10:48.391Z,2.59
2023-01-23T23:15:49.621Z,2.61
2023-01-23T23:20:50.883Z,2.60
2023-01-23T23:25:52.601Z,2.59
2023-01-23T23:30:53.808Z,2.62
2023-01-23T23:35:57.462Z,2.62
2023-01-23T23:40:58.678Z,2.60
2023-01-23T23:45:59.929Z,2.59
2023-01-23T23:51:01.204Z,2.56
2023-01-23T23:56:04.475Z,2.56
